KSHN/SHN METAR and TAF weather

Enter ICAO airport designator
Station Type Date Time Source
KSHN METAR 2019/02/20 17:53 UTC NOAA

KSHN 201753Z AUTO 00000KT 10SM OVC020 03/01 A2984 RMK AO2 SLP111 60004 T00280011 10028 20011 50002


Station Type Date Time Source
KSHN Decoded METAR 2019/02/20 17:53 UTC NOAA

SHELTON SANDERSON FIELD, WA, United States (KSHN) 47-14N 123-08W 82M
Feb 20, 2019 - 12:53 PM EST / 2019.02.20 1753 UTC
Wind: Calm:0
Visibility: 10 mile(s):0
Sky conditions: overcast
Temperature: 37.0 F (2.8 C)
Dew Point: 34.0 F (1.1 C)
Relative Humidity: 88%
Pressure (altimeter): 29.84 in. Hg (1010 hPa)
Pressure tendency: 0.01 inches (0.2 hPa) higher than three hours ago
ob: KSHN 201753Z AUTO 00000KT 10SM OVC020 03/01 A2984 RMK AO2 SLP111 60004 T00280011 10028 20011 50002
cycle: 18

Station Type Date Time Source
KSHN TAF UTC NOAA

Error!


Example: see airport list